BAW968 EGLL-EDDH
Flight info
| Callsign | BAW968 |
|---|---|
| Flight time | 1h 29m |
| Altitude | 35000 |
| Route | BPK Q295 SOMVA DCT MAVAS DCT GASTU DCT OSTOR/N0400F230 T904 RIBSO RIBSO7A |
| Aircraft | A320/M-SDE3FGHIJ1KRWXY/SB1 |
Departure
| Time | 2026-04-30 19:06 |
|---|---|
| Airport | London Heathrow Airport (EGLL) |
Arrival
| Time | 2026-04-30 20:35 |
|---|---|
| Airport | Hamburg Helmut Schmidt Airport (EDDH) |
| Time | Latitude | Longitude | Altitude | Speed | Heading |
|---|---|---|---|---|---|
| 2026-04-30 18:35 | 51.47399 | -0.48587 | 90 ft | 0 kts | 270° |
| 2026-04-30 18:58 | 51.47400 | -0.48539 | 86 ft | 4 kts | 270° |
| 2026-04-30 18:58 | 51.47400 | -0.48505 | 86 ft | 4 kts | 252° |
| 2026-04-30 18:58 | 51.47413 | -0.48477 | 90 ft | 4 kts | 192° |
| 2026-04-30 18:59 | 51.47439 | -0.48475 | 88 ft | 0 kts | 179° |
| 2026-04-30 19:01 | 51.47435 | -0.48475 | 89 ft | 2 kts | 179° |
| 2026-04-30 19:02 | 51.47354 | -0.48474 | 86 ft | 10 kts | 179° |
| 2026-04-30 19:02 | 51.47230 | -0.48358 | 87 ft | 13 kts | 171° |
| 2026-04-30 19:03 | 51.47030 | -0.48355 | 88 ft | 16 kts | 180° |
| 2026-04-30 19:03 | 51.46809 | -0.48352 | 86 ft | 14 kts | 179° |
| 2026-04-30 19:04 | 51.46692 | -0.48468 | 87 ft | 11 kts | 182° |
| 2026-04-30 19:04 | 51.46520 | -0.48466 | 86 ft | 14 kts | 179° |
| 2026-04-30 19:05 | 51.46479 | -0.48307 | 88 ft | 11 kts | 89° |
| 2026-04-30 19:05 | 51.46486 | -0.46840 | 91 ft | 121 kts | 90° |
| 2026-04-30 19:06 | 51.46488 | -0.43459 | 587 ft | 165 kts | 89° |
| 2026-04-30 19:06 | 51.46546 | -0.41592 | 1226 ft | 170 kts | 78° |
| 2026-04-30 19:06 | 51.48069 | -0.38062 | 1862 ft | 220 kts | 55° |
| 2026-04-30 19:07 | 51.50185 | -0.33907 | 2977 ft | 253 kts | 56° |
| 2026-04-30 19:07 | 51.51309 | -0.31686 | 3782 ft | 260 kts | 57° |
| 2026-04-30 19:08 | 51.52992 | -0.26567 | 5273 ft | 268 kts | 76° |
| 2026-04-30 19:08 | 51.54889 | -0.21252 | 5973 ft | 285 kts | 42° |
| 2026-04-30 19:08 | 51.56620 | -0.19716 | 6015 ft | 288 kts | 20° |
| 2026-04-30 19:09 | 51.60430 | -0.17609 | 7458 ft | 292 kts | 20° |
| 2026-04-30 19:09 | 51.62375 | -0.16613 | 8259 ft | 295 kts | 20° |
| 2026-04-30 19:09 | 51.64352 | -0.15633 | 9044 ft | 299 kts | 19° |
| 2026-04-30 19:10 | 51.67941 | -0.13957 | 10354 ft | 306 kts | 18° |
| 2026-04-30 19:10 | 51.70562 | -0.12133 | 10600 ft | 331 kts | 36° |
| 2026-04-30 19:11 | 51.72400 | -0.09737 | 10780 ft | 347 kts | 49° |
| 2026-04-30 19:11 | 51.75136 | -0.03297 | 11908 ft | 351 kts | 70° |
| 2026-04-30 19:11 | 51.75875 | 0.00427 | 12494 ft | 349 kts | 82° |
| 2026-04-30 19:12 | 51.76241 | 0.04327 | 13158 ft | 351 kts | 85° |
| 2026-04-30 19:12 | 51.76568 | 0.08233 | 13813 ft | 354 kts | 86° |
| 2026-04-30 19:12 | 51.76890 | 0.12211 | 14406 ft | 357 kts | 86° |
| 2026-04-30 19:13 | 51.77532 | 0.20195 | 15514 ft | 363 kts | 85° |
| 2026-04-30 19:13 | 51.78184 | 0.28344 | 16596 ft | 369 kts | 85° |
| 2026-04-30 19:13 | 51.78515 | 0.32482 | 17148 ft | 372 kts | 85° |
| 2026-04-30 19:14 | 51.78845 | 0.36583 | 17695 ft | 375 kts | 85° |
| 2026-04-30 19:14 | 51.79183 | 0.40775 | 18257 ft | 378 kts | 85° |
| 2026-04-30 19:14 | 51.79525 | 0.45008 | 18784 ft | 382 kts | 85° |
| 2026-04-30 19:14 | 51.79869 | 0.49288 | 19293 ft | 384 kts | 85° |
| 2026-04-30 19:15 | 51.80208 | 0.53589 | 19808 ft | 387 kts | 85° |
| 2026-04-30 19:15 | 51.80887 | 0.62280 | 20892 ft | 392 kts | 84° |
| 2026-04-30 19:15 | 51.81513 | 0.66601 | 21393 ft | 399 kts | 74° |
| 2026-04-30 19:16 | 51.82555 | 0.70786 | 21888 ft | 403 kts | 70° |
| 2026-04-30 19:16 | 51.83648 | 0.74953 | 22371 ft | 405 kts | 70° |
| 2026-04-30 19:16 | 51.85831 | 0.83359 | 23291 ft | 409 kts | 71° |
| 2026-04-30 19:17 | 51.86930 | 0.87621 | 23755 ft | 412 kts | 71° |
| 2026-04-30 19:17 | 51.89147 | 0.96234 | 24512 ft | 416 kts | 71° |
| 2026-04-30 19:17 | 51.90260 | 1.00577 | 24878 ft | 418 kts | 70° |
| 2026-04-30 19:18 | 51.92118 | 1.07823 | 25477 ft | 421 kts | 70° |
| 2026-04-30 19:18 | 51.93617 | 1.13697 | 25939 ft | 424 kts | 71° |
| 2026-04-30 19:18 | 51.94745 | 1.18131 | 26281 ft | 425 kts | 71° |
| 2026-04-30 19:19 | 51.95873 | 1.22576 | 26615 ft | 427 kts | 71° |
| 2026-04-30 19:19 | 51.97003 | 1.27043 | 26960 ft | 429 kts | 71° |
| 2026-04-30 19:19 | 51.99276 | 1.36050 | 27643 ft | 433 kts | 71° |
| 2026-04-30 19:20 | 52.00423 | 1.40595 | 27968 ft | 435 kts | 71° |
| 2026-04-30 19:20 | 52.01568 | 1.45148 | 28295 ft | 437 kts | 71° |
| 2026-04-30 19:20 | 52.03870 | 1.54331 | 28957 ft | 440 kts | 71° |
| 2026-04-30 19:21 | 52.04946 | 1.58641 | 29377 ft | 439 kts | 71° |
| 2026-04-30 19:21 | 52.07168 | 1.67572 | 30259 ft | 437 kts | 71° |
| 2026-04-30 19:22 | 52.09388 | 1.76491 | 31034 ft | 435 kts | 71° |
| 2026-04-30 19:22 | 52.12634 | 1.89605 | 32175 ft | 432 kts | 71° |
| 2026-04-30 19:23 | 52.15777 | 2.02408 | 33290 ft | 429 kts | 71° |
| 2026-04-30 19:24 | 52.17909 | 2.11158 | 34065 ft | 427 kts | 71° |
| 2026-04-30 19:24 | 52.19000 | 2.15654 | 34421 ft | 426 kts | 71° |
| 2026-04-30 19:24 | 52.21153 | 2.24525 | 35004 ft | 426 kts | 71° |
| 2026-04-30 19:25 | 52.24438 | 2.38109 | 35269 ft | 437 kts | 71° |
| 2026-04-30 19:26 | 52.28893 | 2.56697 | 35272 ft | 440 kts | 71° |
| 2026-04-30 19:27 | 52.31873 | 2.70861 | 35275 ft | 438 kts | 76° |
| 2026-04-30 19:28 | 52.34387 | 2.85173 | 35279 ft | 439 kts | 76° |
| 2026-04-30 19:29 | 52.37734 | 3.04371 | 35296 ft | 438 kts | 76° |
| 2026-04-30 19:30 | 52.41273 | 3.21693 | 35303 ft | 440 kts | 67° |
| 2026-04-30 19:31 | 52.46433 | 3.39924 | 35315 ft | 441 kts | 68° |
| 2026-04-30 19:31 | 52.50256 | 3.53650 | 35310 ft | 441 kts | 67° |
| 2026-04-30 19:32 | 52.52805 | 3.62805 | 35325 ft | 441 kts | 67° |
| 2026-04-30 19:32 | 52.55348 | 3.71975 | 35333 ft | 441 kts | 67° |
| 2026-04-30 19:33 | 52.57866 | 3.81092 | 35325 ft | 441 kts | 67° |
| 2026-04-30 19:33 | 52.60391 | 3.90273 | 35331 ft | 441 kts | 67° |
| 2026-04-30 19:34 | 52.62911 | 3.99468 | 35339 ft | 440 kts | 68° |
| 2026-04-30 19:35 | 52.66665 | 4.13257 | 35342 ft | 440 kts | 67° |
| 2026-04-30 19:35 | 52.69158 | 4.22464 | 35350 ft | 439 kts | 67° |
| 2026-04-30 19:36 | 52.71645 | 4.31658 | 35349 ft | 439 kts | 67° |
| 2026-04-30 19:36 | 52.75363 | 4.45450 | 35351 ft | 438 kts | 67° |
| 2026-04-30 19:37 | 52.77823 | 4.54646 | 35345 ft | 438 kts | 68° |
| 2026-04-30 19:37 | 52.80275 | 4.63856 | 35359 ft | 438 kts | 67° |
| 2026-04-30 19:38 | 52.82724 | 4.73083 | 35345 ft | 438 kts | 68° |
| 2026-04-30 19:38 | 52.85164 | 4.82340 | 35346 ft | 438 kts | 68° |
| 2026-04-30 19:39 | 52.87582 | 4.91534 | 35341 ft | 438 kts | 68° |
| 2026-04-30 19:39 | 52.90015 | 5.00809 | 35345 ft | 438 kts | 68° |
| 2026-04-30 19:40 | 52.92437 | 5.10072 | 35349 ft | 438 kts | 67° |
| 2026-04-30 19:40 | 52.94845 | 5.19358 | 35356 ft | 438 kts | 67° |
| 2026-04-30 19:41 | 52.97206 | 5.28501 | 35363 ft | 438 kts | 67° |
| 2026-04-30 19:41 | 52.99583 | 5.37730 | 35369 ft | 438 kts | 67° |
| 2026-04-30 19:42 | 53.01976 | 5.47012 | 35366 ft | 437 kts | 67° |
| 2026-04-30 19:42 | 53.04366 | 5.56311 | 35364 ft | 437 kts | 68° |
| 2026-04-30 19:43 | 53.06735 | 5.65614 | 35383 ft | 437 kts | 67° |
| 2026-04-30 19:44 | 53.10253 | 5.79544 | 35383 ft | 437 kts | 67° |
| 2026-04-30 19:44 | 53.12603 | 5.88888 | 35378 ft | 438 kts | 67° |
| 2026-04-30 19:45 | 53.14956 | 5.98248 | 35367 ft | 439 kts | 67° |
| 2026-04-30 19:45 | 53.16269 | 6.02803 | 35374 ft | 430 kts | 56° |
| 2026-04-30 19:45 | 53.18069 | 6.06669 | 35366 ft | 415 kts | 47° |
| 2026-04-30 19:45 | 53.19986 | 6.10147 | 35379 ft | 402 kts | 53° |
| 2026-04-30 19:46 | 53.21376 | 6.14162 | 35384 ft | 403 kts | 70° |
| 2026-04-30 19:46 | 53.23205 | 6.23190 | 35385 ft | 419 kts | 71° |
| 2026-04-30 19:47 | 53.25079 | 6.32581 | 35378 ft | 433 kts | 71° |
| 2026-04-30 19:47 | 53.27007 | 6.42173 | 35380 ft | 437 kts | 71° |
| 2026-04-30 19:48 | 53.28930 | 6.51754 | 35398 ft | 438 kts | 71° |
| 2026-04-30 19:48 | 53.30859 | 6.61421 | 35381 ft | 438 kts | 71° |
| 2026-04-30 19:49 | 53.32770 | 6.71091 | 35390 ft | 438 kts | 71° |
| 2026-04-30 19:49 | 53.35630 | 6.85632 | 35422 ft | 438 kts | 71° |
| 2026-04-30 19:50 | 53.37531 | 6.95325 | 35433 ft | 438 kts | 71° |
| 2026-04-30 19:50 | 53.39411 | 7.04990 | 35443 ft | 439 kts | 71° |
| 2026-04-30 19:51 | 53.41301 | 7.14760 | 35452 ft | 439 kts | 71° |
| 2026-04-30 19:51 | 53.42243 | 7.19632 | 35266 ft | 437 kts | 71° |
| 2026-04-30 19:51 | 53.43165 | 7.24417 | 34829 ft | 433 kts | 71° |
| 2026-04-30 19:52 | 53.44074 | 7.29153 | 34636 ft | 422 kts | 71° |
| 2026-04-30 19:52 | 53.44965 | 7.33797 | 34386 ft | 414 kts | 71° |
| 2026-04-30 19:52 | 53.45835 | 7.38358 | 34115 ft | 406 kts | 71° |
| 2026-04-30 19:52 | 53.46686 | 7.42833 | 33832 ft | 399 kts | 71° |
| 2026-04-30 19:53 | 53.47522 | 7.47232 | 33568 ft | 392 kts | 71° |
| 2026-04-30 19:53 | 53.48346 | 7.51570 | 33289 ft | 386 kts | 71° |
| 2026-04-30 19:53 | 53.49149 | 7.55823 | 33017 ft | 380 kts | 71° |
| 2026-04-30 19:53 | 53.49943 | 7.60028 | 32760 ft | 375 kts | 71° |
| 2026-04-30 19:54 | 53.50725 | 7.64175 | 32490 ft | 370 kts | 71° |
| 2026-04-30 19:54 | 53.51498 | 7.68279 | 32223 ft | 366 kts | 71° |
| 2026-04-30 19:54 | 53.52262 | 7.72335 | 31961 ft | 363 kts | 71° |
| 2026-04-30 19:54 | 53.53011 | 7.76314 | 31726 ft | 361 kts | 71° |
| 2026-04-30 19:55 | 53.53763 | 7.80331 | 31479 ft | 359 kts | 71° |
| 2026-04-30 19:55 | 53.54507 | 7.84322 | 31229 ft | 357 kts | 71° |
| 2026-04-30 19:55 | 53.55247 | 7.88302 | 30983 ft | 355 kts | 71° |
| 2026-04-30 19:55 | 53.55982 | 7.92254 | 30737 ft | 352 kts | 71° |
| 2026-04-30 19:56 | 53.56706 | 7.96158 | 30492 ft | 348 kts | 71° |
| 2026-04-30 19:56 | 53.57421 | 8.00028 | 30212 ft | 345 kts | 71° |
| 2026-04-30 19:56 | 53.58131 | 8.03879 | 29934 ft | 343 kts | 71° |
| 2026-04-30 19:56 | 53.58839 | 8.07727 | 29650 ft | 342 kts | 71° |
| 2026-04-30 19:57 | 53.59539 | 8.11535 | 29431 ft | 340 kts | 71° |
| 2026-04-30 19:57 | 53.60232 | 8.15319 | 29422 ft | 339 kts | 71° |
| 2026-04-30 19:57 | 53.61608 | 8.22868 | 29422 ft | 339 kts | 71° |
| 2026-04-30 19:58 | 53.62993 | 8.30480 | 29422 ft | 339 kts | 71° |
| 2026-04-30 19:58 | 53.63684 | 8.34279 | 29289 ft | 341 kts | 71° |
| 2026-04-30 19:58 | 53.64390 | 8.38175 | 28415 ft | 352 kts | 71° |
| 2026-04-30 19:59 | 53.65109 | 8.42149 | 27868 ft | 355 kts | 71° |
| 2026-04-30 19:59 | 53.65826 | 8.46126 | 27453 ft | 353 kts | 71° |
| 2026-04-30 19:59 | 53.67233 | 8.53958 | 26699 ft | 349 kts | 71° |
| 2026-04-30 20:00 | 53.67933 | 8.57859 | 26319 ft | 346 kts | 71° |
| 2026-04-30 20:00 | 53.68627 | 8.61741 | 25945 ft | 344 kts | 71° |
| 2026-04-30 20:00 | 53.69311 | 8.65591 | 25567 ft | 342 kts | 71° |
| 2026-04-30 20:00 | 53.69993 | 8.69431 | 25197 ft | 340 kts | 71° |
| 2026-04-30 20:01 | 53.71346 | 8.77042 | 24487 ft | 336 kts | 71° |
| 2026-04-30 20:01 | 53.72019 | 8.80822 | 24139 ft | 334 kts | 72° |
| 2026-04-30 20:01 | 53.72681 | 8.84563 | 23758 ft | 332 kts | 72° |
| 2026-04-30 20:02 | 53.73985 | 8.91989 | 23001 ft | 326 kts | 72° |
| 2026-04-30 20:02 | 53.74626 | 8.95657 | 22642 ft | 323 kts | 72° |
| 2026-04-30 20:03 | 53.75888 | 9.02856 | 21629 ft | 316 kts | 72° |
| 2026-04-30 20:03 | 53.76509 | 9.06413 | 21004 ft | 312 kts | 72° |
| 2026-04-30 20:03 | 53.77111 | 9.09883 | 20582 ft | 302 kts | 72° |
| 2026-04-30 20:03 | 53.77693 | 9.13237 | 20246 ft | 295 kts | 72° |
| 2026-04-30 20:04 | 53.78261 | 9.16507 | 19952 ft | 292 kts | 72° |
| 2026-04-30 20:04 | 53.78832 | 9.19796 | 19628 ft | 291 kts | 72° |
| 2026-04-30 20:04 | 53.79396 | 9.23058 | 19360 ft | 289 kts | 73° |
| 2026-04-30 20:05 | 53.80516 | 9.29579 | 18887 ft | 288 kts | 73° |
| 2026-04-30 20:05 | 53.81073 | 9.32827 | 18642 ft | 287 kts | 73° |
| 2026-04-30 20:05 | 53.81887 | 9.39381 | 18103 ft | 285 kts | 93° |
| 2026-04-30 20:06 | 53.81399 | 9.42602 | 17637 ft | 286 kts | 115° |
| 2026-04-30 20:06 | 53.80161 | 9.45245 | 17292 ft | 291 kts | 137° |
| 2026-04-30 20:06 | 53.78353 | 9.46839 | 16930 ft | 299 kts | 162° |
| 2026-04-30 20:06 | 53.76270 | 9.47067 | 16674 ft | 301 kts | 182° |
| 2026-04-30 20:07 | 53.74285 | 9.46017 | 16437 ft | 301 kts | 206° |
| 2026-04-30 20:07 | 53.72477 | 9.44243 | 16185 ft | 299 kts | 209° |
| 2026-04-30 20:07 | 53.69017 | 9.40442 | 15602 ft | 297 kts | 221° |
| 2026-04-30 20:08 | 53.67797 | 9.37671 | 15316 ft | 296 kts | 246° |
| 2026-04-30 20:08 | 53.67342 | 9.34357 | 15015 ft | 294 kts | 271° |
| 2026-04-30 20:08 | 53.67715 | 9.31016 | 14692 ft | 289 kts | 297° |
| 2026-04-30 20:08 | 53.68846 | 9.28282 | 14371 ft | 282 kts | 323° |
| 2026-04-30 20:09 | 53.70487 | 9.26601 | 14017 ft | 273 kts | 347° |
| 2026-04-30 20:09 | 53.72327 | 9.26167 | 13660 ft | 264 kts | 10° |
| 2026-04-30 20:09 | 53.75638 | 9.28301 | 12973 ft | 255 kts | 33° |
| 2026-04-30 20:10 | 53.78682 | 9.31330 | 12347 ft | 253 kts | 34° |
| 2026-04-30 20:10 | 53.80188 | 9.32859 | 12046 ft | 252 kts | 34° |
| 2026-04-30 20:10 | 53.81672 | 9.34427 | 11735 ft | 249 kts | 42° |
| 2026-04-30 20:11 | 53.83058 | 9.39414 | 11432 ft | 241 kts | 92° |
| 2026-04-30 20:11 | 53.82649 | 9.42168 | 11435 ft | 245 kts | 117° |
| 2026-04-30 20:11 | 53.81550 | 9.44331 | 11442 ft | 250 kts | 143° |
| 2026-04-30 20:12 | 53.78092 | 9.45026 | 11438 ft | 269 kts | 201° |
| 2026-04-30 20:12 | 53.76452 | 9.43517 | 11439 ft | 272 kts | 207° |
| 2026-04-30 20:12 | 53.74814 | 9.41892 | 11437 ft | 273 kts | 207° |
| 2026-04-30 20:13 | 53.73182 | 9.40267 | 11439 ft | 271 kts | 207° |
| 2026-04-30 20:13 | 53.71554 | 9.38639 | 11439 ft | 271 kts | 210° |
| 2026-04-30 20:13 | 53.70241 | 9.36365 | 11433 ft | 275 kts | 241° |
| 2026-04-30 20:13 | 53.69774 | 9.33270 | 11436 ft | 277 kts | 274° |
| 2026-04-30 20:14 | 53.70299 | 9.30192 | 11434 ft | 273 kts | 306° |
| 2026-04-30 20:14 | 53.71612 | 9.28034 | 11434 ft | 267 kts | 336° |
| 2026-04-30 20:14 | 53.73358 | 9.27228 | 11434 ft | 258 kts | 5° |
| 2026-04-30 20:14 | 53.75065 | 9.27888 | 11435 ft | 251 kts | 31° |
| 2026-04-30 20:15 | 53.76590 | 9.29315 | 11435 ft | 251 kts | 33° |
| 2026-04-30 20:15 | 53.77591 | 9.30300 | 11436 ft | 252 kts | 33° |
| 2026-04-30 20:15 | 53.79103 | 9.31807 | 11436 ft | 252 kts | 34° |
| 2026-04-30 20:15 | 53.81101 | 9.33803 | 11437 ft | 252 kts | 34° |
| 2026-04-30 20:16 | 53.82400 | 9.35712 | 11430 ft | 246 kts | 58° |
| 2026-04-30 20:16 | 53.83035 | 9.38343 | 11433 ft | 243 kts | 83° |
| 2026-04-30 20:16 | 53.83034 | 9.40276 | 11434 ft | 244 kts | 100° |
| 2026-04-30 20:16 | 53.82388 | 9.42921 | 11434 ft | 247 kts | 125° |
| 2026-04-30 20:17 | 53.81078 | 9.44810 | 11443 ft | 253 kts | 152° |
| 2026-04-30 20:17 | 53.79342 | 9.45464 | 11439 ft | 263 kts | 180° |
| 2026-04-30 20:17 | 53.77574 | 9.44607 | 11442 ft | 271 kts | 206° |
| 2026-04-30 20:17 | 53.75957 | 9.43025 | 11441 ft | 273 kts | 207° |
| 2026-04-30 20:18 | 53.74322 | 9.41399 | 11433 ft | 273 kts | 207° |
| 2026-04-30 20:18 | 53.72686 | 9.39776 | 11437 ft | 271 kts | 207° |
| 2026-04-30 20:18 | 53.71091 | 9.38087 | 11432 ft | 273 kts | 218° |
| 2026-04-30 20:18 | 53.69998 | 9.35482 | 11432 ft | 276 kts | 251° |
| 2026-04-30 20:19 | 53.69835 | 9.32276 | 11435 ft | 276 kts | 283° |
| 2026-04-30 20:19 | 53.70636 | 9.29401 | 11437 ft | 271 kts | 315° |
| 2026-04-30 20:19 | 53.72145 | 9.27613 | 11437 ft | 264 kts | 345° |
| 2026-04-30 20:19 | 53.73922 | 9.27282 | 11437 ft | 256 kts | 14° |
| 2026-04-30 20:20 | 53.75558 | 9.28332 | 11438 ft | 251 kts | 32° |
| 2026-04-30 20:20 | 53.77055 | 9.29773 | 11434 ft | 252 kts | 33° |
| 2026-04-30 20:20 | 53.78565 | 9.31275 | 11434 ft | 252 kts | 34° |
| 2026-04-30 20:20 | 53.80076 | 9.32789 | 11434 ft | 252 kts | 34° |
| 2026-04-30 20:21 | 53.81570 | 9.34326 | 11435 ft | 250 kts | 40° |
| 2026-04-30 20:21 | 53.82682 | 9.36512 | 11435 ft | 245 kts | 66° |
| 2026-04-30 20:21 | 53.83082 | 9.39276 | 11436 ft | 243 kts | 91° |
| 2026-04-30 20:21 | 53.82696 | 9.42055 | 11437 ft | 245 kts | 116° |
| 2026-04-30 20:22 | 53.81598 | 9.44257 | 11443 ft | 250 kts | 142° |
| 2026-04-30 20:22 | 53.79972 | 9.45395 | 11439 ft | 260 kts | 169° |
| 2026-04-30 20:22 | 53.78161 | 9.45074 | 11439 ft | 269 kts | 199° |
| 2026-04-30 20:22 | 53.76502 | 9.43569 | 11442 ft | 273 kts | 207° |
| 2026-04-30 20:23 | 53.74882 | 9.41966 | 11440 ft | 273 kts | 207° |
| 2026-04-30 20:23 | 53.73242 | 9.40337 | 11437 ft | 272 kts | 207° |
| 2026-04-30 20:23 | 53.71623 | 9.38719 | 11439 ft | 271 kts | 210° |
| 2026-04-30 20:23 | 53.70283 | 9.36495 | 11433 ft | 275 kts | 240° |
| 2026-04-30 20:24 | 53.69730 | 9.33414 | 11439 ft | 277 kts | 262° |
| 2026-04-30 20:24 | 53.69281 | 9.30266 | 11323 ft | 275 kts | 242° |
| 2026-04-30 20:24 | 53.68120 | 9.27747 | 10879 ft | 274 kts | 213° |
| 2026-04-30 20:24 | 53.66410 | 9.26461 | 10509 ft | 268 kts | 184° |
| 2026-04-30 20:25 | 53.62895 | 9.27738 | 9838 ft | 259 kts | 154° |
| 2026-04-30 20:25 | 53.61231 | 9.28870 | 9548 ft | 257 kts | 154° |
| 2026-04-30 20:26 | 53.57783 | 9.31252 | 8452 ft | 273 kts | 154° |
| 2026-04-30 20:26 | 53.54385 | 9.33608 | 7817 ft | 270 kts | 154° |
| 2026-04-30 20:26 | 53.52661 | 9.34802 | 7518 ft | 269 kts | 154° |
| 2026-04-30 20:27 | 53.49220 | 9.37170 | 7019 ft | 261 kts | 154° |
| 2026-04-30 20:27 | 53.46344 | 9.39644 | 6793 ft | 238 kts | 129° |
| 2026-04-30 20:28 | 53.45576 | 9.44592 | 6346 ft | 223 kts | 86° |
| 2026-04-30 20:28 | 53.45895 | 9.49760 | 5698 ft | 223 kts | 84° |
| 2026-04-30 20:29 | 53.46254 | 9.54920 | 5094 ft | 222 kts | 84° |
| 2026-04-30 20:30 | 53.46804 | 9.62654 | 4325 ft | 222 kts | 84° |
| 2026-04-30 20:30 | 53.48507 | 9.69618 | 4005 ft | 213 kts | 52° |
| 2026-04-30 20:31 | 53.51249 | 9.75096 | 3389 ft | 198 kts | 52° |
| 2026-04-30 20:32 | 53.53838 | 9.80286 | 2574 ft | 186 kts | 52° |
| 2026-04-30 20:32 | 53.55473 | 9.83572 | 2083 ft | 181 kts | 52° |
| 2026-04-30 20:33 | 53.56264 | 9.85162 | 1833 ft | 175 kts | 52° |
| 2026-04-30 20:33 | 53.57744 | 9.88139 | 1387 ft | 161 kts | 53° |
| 2026-04-30 20:33 | 53.58448 | 9.89556 | 1172 ft | 153 kts | 53° |
| 2026-04-30 20:34 | 53.59755 | 9.92192 | 780 ft | 143 kts | 52° |
| 2026-04-30 20:34 | 53.61021 | 9.94755 | 387 ft | 142 kts | 51° |
| 2026-04-30 20:35 | 53.61650 | 9.96031 | 188 ft | 141 kts | 51° |
| 2026-04-30 20:35 | 53.62270 | 9.97297 | 41 ft | 132 kts | 51° |
| 2026-04-30 20:35 | 53.63055 | 9.98875 | 46 ft | 40 kts | 53° |
| 2026-04-30 20:36 | 53.63088 | 9.99191 | 47 ft | 17 kts | 94° |
| 2026-04-30 20:36 | 53.63086 | 9.99255 | 47 ft | 0 kts | 94° |
| 2026-04-30 20:36 | 53.63085 | 9.99284 | 47 ft | 0 kts | 91° |
| 2026-04-30 20:37 | 53.63085 | 9.99315 | 47 ft | 5 kts | 90° |
| 2026-04-30 20:37 | 53.63091 | 9.99365 | 47 ft | 0 kts | 68° |
| 2026-04-30 20:38 | 53.63092 | 9.99370 | 47 ft | 3 kts | 68° |
| 2026-04-30 20:38 | 53.63126 | 9.99467 | 46 ft | 16 kts | 56° |
| 2026-04-30 20:38 | 53.63204 | 9.99634 | 48 ft | 17 kts | 50° |
| 2026-04-30 20:39 | 53.63138 | 9.99843 | 46 ft | 15 kts | 156° |
| 2026-04-30 20:39 | 53.63039 | 9.99921 | 48 ft | 18 kts | 154° |
| 2026-04-30 20:39 | 53.62944 | 10.00019 | 48 ft | 16 kts | 126° |